Cedar Rapids, IA (52401)

7:21 PM CDT on July 29, 2016 (GMT -0500)
Downtown Cedar Rapids - KCRG | | Change Station

Elev 768 ft 41.98 °N, 91.66 °W | Updated 1 minute ago

Overcast
Overcast
70.7 °F
Feels Like 70.7 °F
N
4.0
Wind Variable Wind from North
Gusts 8.0 mph

Today
High -- | Low -- °F
--% Chance of Precip.
Yesterday
High -- | Low -- °F
Precip. -- in
Pressure 29.95 in
Visibility 9.0 miles
Clouds Few 1500 ft
Overcast 2500 ft
Dew Point 66 °F
Humidity 85%
Rainfall in
Snow Depth Not available.
5:57 AM 8:27 PM
Waning Crescent, 18% visible
METAR KCID 292352Z 36008KT 9SM FEW015 OVC025 21/20 A2996 RMK AO2 LTG DSNT S SLP141 60008 T02110200 10239 20211 53005
Pressure 29.95 in
Visibility 9.0 miles
Clouds Few 1500 ft
Overcast 2500 ft
Dew Point 66 °F
Humidity 85%
Rainfall in
Snow Depth Not available.
5:57 AM 8:27 PM
Waning Crescent, 18% visible
METAR KCID 292352Z 36008KT 9SM FEW015 OVC025 21/20 A2996 RMK AO2 LTG DSNT S SLP141 60008 T02110200 10239 20211 53005

10-Day Weather Forecast

Almanac

Astronomy

Jul. 29, 2016 Rise Set
Actual Time
Civil Twilight
Nautical Twilight
Astronomical Twilight
Moon
Length of Visible Light
Length of Day
Tomorrow will be .
, % of the Moon is Illuminated

Today's Extremes

State Highs State Lows

Community

WunderPhotos

Upload Photos

1,928,449 photos uploaded!

WunderBlog® & News

Nearby

Air Quality

  Air Quality AQ Index Pollutant
Not available.

Snow Depth

Station Depth Elevation

Earthquake Activity

City Distance Mag. Time & Date
Minimum magnitude displayed is 2.5.

Coastal Water Temperatures

Place Temperature

Stations

Nearby Weather Stations

Station Location Temp. Windchill Dew Point Humidity Wind Precip. Elev Updated Type
                   

Watches & Warnings

There are currently no watches in effect.